createdAt,value
2019-03-25T00:01:19.585Z,12.05
2019-03-25T00:03:53.734Z,9.30
2019-03-25T00:06:27.779Z,11.20
2019-03-25T00:09:05.229Z,6.60
2019-03-25T00:11:36.610Z,6.53
2019-03-25T00:14:10.377Z,12.13
2019-03-25T00:16:45.220Z,5.40
2019-03-25T00:19:18.945Z,7.78
2019-03-25T00:22:00.676Z,7.72
2019-03-25T00:24:39.128Z,8.03
2019-03-25T00:27:09.835Z,7.37
2019-03-25T00:29:43.447Z,6.22
2019-03-25T00:32:17.340Z,8.40
2019-03-25T00:34:51.418Z,5.75
2019-03-25T00:37:26.086Z,6.67
2019-03-25T00:39:59.776Z,6.87
2019-03-25T00:42:33.396Z,6.90
2019-03-25T00:45:08.228Z,7.37
2019-03-25T00:47:42.347Z,7.70
2019-03-25T00:50:16.966Z,12.10
2019-03-25T00:52:51.893Z,9.83
2019-03-25T00:55:25.744Z,5.47
2019-03-25T00:57:59.630Z,6.03
2019-03-25T01:00:33.706Z,5.85
2019-03-25T01:03:07.735Z,6.00
2019-03-25T01:05:41.951Z,4.67
2019-03-25T01:08:16.175Z,4.85
2019-03-25T01:10:50.141Z,7.65
2019-03-25T01:13:25.425Z,8.90
2019-03-25T01:15:59.061Z,7.62
2019-03-25T01:18:33.612Z,7.62
2019-03-25T01:21:07.801Z,8.83
2019-03-25T01:23:41.643Z,4.72
2019-03-25T01:26:15.300Z,5.65
2019-03-25T01:28:48.902Z,11.80
2019-03-25T01:31:22.436Z,5.05
2019-03-25T01:33:56.418Z,11.33
2019-03-25T01:36:30.329Z,11.40
2019-03-25T01:39:04.240Z,11.73
2019-03-25T01:41:37.917Z,11.50
2019-03-25T01:44:11.956Z,13.83
2019-03-25T01:46:45.317Z,14.43
2019-03-25T01:49:18.833Z,13.55
2019-03-25T01:51:53.265Z,8.30
2019-03-25T01:54:26.703Z,5.45
2019-03-25T01:57:00.466Z,7.50
2019-03-25T01:59:34.441Z,12.37
2019-03-25T02:02:08.118Z,10.63
2019-03-25T02:04:42.046Z,6.30
2019-03-25T02:07:23.157Z,19.92
2019-03-25T02:09:56.820Z,10.32
2019-03-25T02:12:30.601Z,13.88
2019-03-25T02:15:04.466Z,11.75
2019-03-25T02:17:38.410Z,15.28
2019-03-25T02:20:12.498Z,15.95
2019-03-25T02:22:46.477Z,15.48
2019-03-25T02:25:25.317Z,14.87
2019-03-25T02:27:54.958Z,14.30
2019-03-25T02:30:28.856Z,4.37
2019-03-25T02:33:06.803Z,19.57
2019-03-25T02:35:40.344Z,13.98
2019-03-25T02:38:14.496Z,7.58
2019-03-25T02:40:48.098Z,9.30
2019-03-25T02:43:21.850Z,13.80
2019-03-25T02:46:00.565Z,16.45
2019-03-25T02:48:34.514Z,17.55
2019-03-25T02:51:08.395Z,9.53
2019-03-25T02:53:42.047Z,16.37
2019-03-25T02:56:16.794Z,14.55
2019-03-25T02:58:50.716Z,18.75
2019-03-25T03:01:24.468Z,21.15
2019-03-25T03:03:58.295Z,10.18
2019-03-25T03:06:32.055Z,14.23
2019-03-25T03:09:07.770Z,10.38
2019-03-25T03:11:41.911Z,19.15
2019-03-25T03:14:15.642Z,6.75
2019-03-25T03:16:49.570Z,16.12
2019-03-25T03:19:22.990Z,7.50
2019-03-25T03:21:57.403Z,13.08
2019-03-25T03:24:32.425Z,11.85
2019-03-25T03:27:06.639Z,14.90
2019-03-25T03:29:40.340Z,16.50
2019-03-25T03:32:14.191Z,6.97
2019-03-25T03:34:47.536Z,9.95
2019-03-25T03:37:21.768Z,10.40
2019-03-25T03:39:55.181Z,11.28
2019-03-25T03:42:29.294Z,11.60
2019-03-25T03:45:02.728Z,11.65
2019-03-25T03:47:36.737Z,10.88
2019-03-25T03:50:13.891Z,11.48
2019-03-25T03:52:46.153Z,11.12
2019-03-25T03:55:19.800Z,5.47
2019-03-25T03:57:54.816Z,6.97
2019-03-25T04:00:36.012Z,9.30
2019-03-25T04:03:10.262Z,11.70
2019-03-25T04:05:44.348Z,9.83
2019-03-25T04:08:18.177Z,9.70
2019-03-25T04:10:54.549Z,7.83
2019-03-25T04:13:28.517Z,11.12
2019-03-25T04:16:02.714Z,10.58
2019-03-25T04:18:43.305Z,11.33
2019-03-25T04:21:16.762Z,12.03
2019-03-25T04:23:50.759Z,12.65
2019-03-25T04:26:28.912Z,10.32
2019-03-25T04:28:59.430Z,8.80
2019-03-25T04:31:33.156Z,12.73
2019-03-25T04:34:07.090Z,10.82
2019-03-25T04:36:40.939Z,13.15
2019-03-25T04:39:16.074Z,13.43
2019-03-25T04:41:49.804Z,12.47
2019-03-25T04:44:23.329Z,13.75
2019-03-25T04:46:57.701Z,12.33
2019-03-25T04:49:31.754Z,12.30
2019-03-25T04:52:05.588Z,10.58
2019-03-25T04:54:39.221Z,12.13
2019-03-25T04:57:14.305Z,12.60
2019-03-25T04:59:48.264Z,11.78
2019-03-25T05:02:28.485Z,12.55
2019-03-25T05:05:02.347Z,11.75
2019-03-25T05:07:36.554Z,13.03
2019-03-25T05:10:10.843Z,11.40
2019-03-25T05:12:45.145Z,13.78
2019-03-25T05:15:20.512Z,15.38
2019-03-25T05:17:54.234Z,13.70
2019-03-25T05:20:28.570Z,13.50
2019-03-25T05:23:02.076Z,12.68
2019-03-25T05:25:36.905Z,13.50
2019-03-25T05:28:10.665Z,14.10
2019-03-25T05:30:44.407Z,14.03
2019-03-25T05:33:22.086Z,10.20
2019-03-25T05:35:56.013Z,10.55
2019-03-25T05:38:30.233Z,10.35
2019-03-25T05:41:04.319Z,11.75
2019-03-25T05:43:37.968Z,11.22
2019-03-25T05:46:12.985Z,11.80
2019-03-25T05:48:47.609Z,10.03
2019-03-25T05:51:21.282Z,7.37
2019-03-25T05:53:55.355Z,12.93
2019-03-25T05:56:30.044Z,12.00
2019-03-25T05:59:04.067Z,12.50
2019-03-25T06:01:38.179Z,10.80
2019-03-25T06:04:12.035Z,12.20
2019-03-25T06:06:45.762Z,14.05
2019-03-25T06:14:45.352Z,13.28
2019-03-25T06:17:19.747Z,8.93
2019-03-25T06:19:54.553Z,12.73
2019-03-25T06:22:28.126Z,9.55
2019-03-25T06:25:04.849Z,10.95
2019-03-25T06:27:42.709Z,12.78
2019-03-25T06:30:20.509Z,15.15
2019-03-25T06:33:07.762Z,9.60
2019-03-25T06:35:34.827Z,12.13
2019-03-25T06:38:08.960Z,13.80
2019-03-25T06:40:44.000Z,13.50
2019-03-25T06:43:17.905Z,11.73
2019-03-25T06:45:51.725Z,11.70
2019-03-25T06:48:25.358Z,13.48
2019-03-25T06:50:59.823Z,11.25
2019-03-25T06:53:33.723Z,13.15
2019-03-25T06:56:07.559Z,10.45
2019-03-25T06:58:41.526Z,12.78
2019-03-25T07:01:16.177Z,13.68
2019-03-25T07:03:49.668Z,7.90
2019-03-25T07:06:23.442Z,13.43
2019-03-25T07:08:57.025Z,12.37
2019-03-25T07:11:31.215Z,14.55
2019-03-25T07:14:07.887Z,13.30
2019-03-25T07:16:41.561Z,12.95
2019-03-25T07:19:16.045Z,15.30
2019-03-25T07:21:50.237Z,17.42
2019-03-25T07:24:24.161Z,14.60
2019-03-25T07:26:58.629Z,12.35
2019-03-25T07:29:32.171Z,15.20
2019-03-25T07:32:09.112Z,14.78
2019-03-25T07:34:51.763Z,14.75
2019-03-25T07:37:26.766Z,15.43
2019-03-25T07:40:00.667Z,14.98
2019-03-25T07:42:35.027Z,15.08
2019-03-25T07:45:10.862Z,16.07
2019-03-25T07:47:44.793Z,15.90
2019-03-25T07:50:18.423Z,21.62
2019-03-25T07:52:52.928Z,17.35
2019-03-25T07:55:26.595Z,15.45
2019-03-25T07:58:00.222Z,16.27
2019-03-25T08:00:36.089Z,17.37
2019-03-25T08:03:10.105Z,16.97
2019-03-25T08:05:47.748Z,16.85
2019-03-25T08:08:22.010Z,16.07
2019-03-25T08:10:57.256Z,15.23
2019-03-25T08:13:31.264Z,17.15
2019-03-25T08:16:08.272Z,17.62
2019-03-25T08:18:45.532Z,17.77
2019-03-25T08:21:20.165Z,18.23
2019-03-25T08:23:54.302Z,18.65
2019-03-25T08:26:28.232Z,19.42
2019-03-25T08:29:04.251Z,18.85
2019-03-25T08:31:53.792Z,19.12
2019-03-25T08:34:28.552Z,21.02
2019-03-25T08:37:05.949Z,19.80
2019-03-25T08:39:40.161Z,20.40
2019-03-25T08:42:14.156Z,18.50
2019-03-25T08:44:50.952Z,18.12
2019-03-25T08:47:24.858Z,19.40
2019-03-25T08:49:58.829Z,21.40
2019-03-25T08:52:39.126Z,26.40
2019-03-25T08:55:12.942Z,22.98
2019-03-25T08:57:46.634Z,24.77
2019-03-25T09:00:21.091Z,25.37
2019-03-25T09:02:56.509Z,24.52
2019-03-25T09:05:30.437Z,24.57
2019-03-25T09:08:04.364Z,25.57
2019-03-25T09:10:38.206Z,25.20
2019-03-25T09:13:15.180Z,30.00
2019-03-25T09:15:48.658Z,28.90
2019-03-25T09:18:23.494Z,33.20
2019-03-25T09:20:57.760Z,33.25
2019-03-25T09:23:34.275Z,28.17
2019-03-25T09:26:08.225Z,36.85
2019-03-25T09:28:41.773Z,26.90
2019-03-25T09:31:17.365Z,37.73
2019-03-25T09:34:15.890Z,41.00
2019-03-25T09:37:04.508Z,38.25
2019-03-25T09:42:42.686Z,37.58
2019-03-25T09:45:16.607Z,35.03
2019-03-25T09:47:53.144Z,40.58
2019-03-25T09:50:25.685Z,32.55
2019-03-25T09:52:59.642Z,34.98
2019-03-25T09:55:36.532Z,33.88
2019-03-25T09:58:11.282Z,33.50
2019-03-25T10:00:46.022Z,35.28
2019-03-25T10:03:20.042Z,32.63
2019-03-25T10:05:53.895Z,31.93
2019-03-25T10:08:28.447Z,32.05
2019-03-25T10:11:01.806Z,31.77
2019-03-25T10:13:35.677Z,30.40
2019-03-25T10:16:12.217Z,28.60
2019-03-25T10:18:46.186Z,35.90
2019-03-25T10:21:20.203Z,29.98
2019-03-25T10:23:54.226Z,31.75
2019-03-25T10:26:28.053Z,31.05
2019-03-25T10:29:01.657Z,32.78
2019-03-25T10:31:35.767Z,31.35
2019-03-25T10:34:13.945Z,31.75
2019-03-25T10:36:51.432Z,32.60
2019-03-25T10:39:26.441Z,32.10
2019-03-25T10:42:00.128Z,32.28
2019-03-25T10:44:33.797Z,32.35
2019-03-25T10:47:14.105Z,33.02
2019-03-25T10:49:47.638Z,32.40
2019-03-25T10:52:21.786Z,36.45
2019-03-25T10:57:30.530Z,30.50
2019-03-25T11:00:04.977Z,33.83
2019-03-25T11:02:40.398Z,32.38
2019-03-25T11:05:14.185Z,32.55
2019-03-25T11:07:48.839Z,35.03
2019-03-25T11:10:22.658Z,36.17
2019-03-25T11:12:57.557Z,34.92
2019-03-25T11:15:32.093Z,34.70
2019-03-25T11:18:06.109Z,30.90
2019-03-25T11:20:40.055Z,35.08
2019-03-25T11:23:15.856Z,35.28
2019-03-25T11:25:49.732Z,36.05
2019-03-25T11:28:24.223Z,36.48
2019-03-25T11:31:10.846Z,35.35
2019-03-25T11:33:42.068Z,32.05
2019-03-25T11:36:15.823Z,37.33
2019-03-25T11:38:53.244Z,33.92
2019-03-25T11:41:28.016Z,33.95
2019-03-25T11:44:03.362Z,32.17
2019-03-25T11:46:37.562Z,34.78
2019-03-25T11:49:15.088Z,31.10
2019-03-25T11:51:50.199Z,36.08
2019-03-25T11:54:24.903Z,34.98
2019-03-25T11:56:59.582Z,33.65
2019-03-25T11:59:34.803Z,35.73
2019-03-25T12:02:17.219Z,35.60
2019-03-25T12:04:50.143Z,35.03
2019-03-25T12:07:23.579Z,37.28
2019-03-25T12:10:00.722Z,37.58
2019-03-25T12:12:34.900Z,37.63
2019-03-25T12:15:10.553Z,38.73
2019-03-25T12:17:44.207Z,38.23
2019-03-25T12:20:19.884Z,39.88
2019-03-25T12:23:05.095Z,36.85
2019-03-25T12:25:46.932Z,39.15
2019-03-25T12:28:23.809Z,45.40
2019-03-25T12:31:01.741Z,45.45
2019-03-25T12:33:44.264Z,43.90
2019-03-25T12:36:23.772Z,42.60
2019-03-25T12:38:57.313Z,47.15
2019-03-25T12:41:31.275Z,47.25
2019-03-25T12:50:47.406Z,42.55
2019-03-25T12:53:30.389Z,44.42
2019-03-25T12:56:10.949Z,42.27
2019-03-25T12:58:48.634Z,42.38
2019-03-25T13:01:35.929Z,41.73
2019-03-25T13:04:25.082Z,40.38
2019-03-25T13:06:59.282Z,38.53
2019-03-25T13:09:33.460Z,38.78
2019-03-25T13:12:19.409Z,39.40
2019-03-25T13:14:54.361Z,37.20
2019-03-25T13:17:30.991Z,38.70
2019-03-25T13:20:08.514Z,38.98
2019-03-25T13:22:43.865Z,38.63
2019-03-25T13:25:50.732Z,36.98
2019-03-25T13:31:55.144Z,35.80
2019-03-25T13:35:04.536Z,38.65
2019-03-25T13:41:14.436Z,34.85
2019-03-25T13:44:13.084Z,35.00
2019-03-25T13:47:12.068Z,36.00
2019-03-25T13:53:29.681Z,36.23
2019-03-25T13:56:16.951Z,35.43
2019-03-25T14:02:08.737Z,33.53
2019-03-25T14:04:42.961Z,34.53
2019-03-25T14:07:17.015Z,34.08
2019-03-25T14:09:50.658Z,34.63
2019-03-25T14:12:24.378Z,36.35
2019-03-25T14:14:58.102Z,36.10
2019-03-25T14:17:31.715Z,33.60
2019-03-25T14:20:05.322Z,36.95
2019-03-25T14:22:39.160Z,34.45
2019-03-25T14:25:13.956Z,35.40
2019-03-25T14:27:48.733Z,36.90
2019-03-25T14:30:22.713Z,37.38
2019-03-25T14:32:56.820Z,35.88
2019-03-25T14:35:30.745Z,36.95
2019-03-25T14:38:14.723Z,36.35
2019-03-25T14:41:11.152Z,36.63
2019-03-25T14:43:43.110Z,38.10
2019-03-25T14:46:20.601Z,36.95
2019-03-25T14:51:53.171Z,40.10
2019-03-25T14:57:22.476Z,38.98
2019-03-25T15:00:07.730Z,38.58
2019-03-25T15:02:42.808Z,38.55
2019-03-25T15:05:17.852Z,38.45
2019-03-25T15:07:56.431Z,38.95
2019-03-25T15:10:30.669Z,36.40
2019-03-25T15:13:04.769Z,36.03
2019-03-25T15:15:38.890Z,36.10
2019-03-25T15:18:15.923Z,36.35
2019-03-25T15:20:51.205Z,37.48
2019-03-25T15:23:27.506Z,38.25
2019-03-25T15:26:40.451Z,39.25
2019-03-25T15:29:15.979Z,38.33
2019-03-25T15:31:50.890Z,41.63
2019-03-25T15:34:27.523Z,41.08
2019-03-25T15:37:02.023Z,43.15
2019-03-25T15:39:46.675Z,39.58
2019-03-25T15:42:15.797Z,40.92
2019-03-25T15:44:50.113Z,41.02
2019-03-25T15:47:23.578Z,39.35
2019-03-25T15:49:58.020Z,40.05
2019-03-25T15:52:31.996Z,41.77
2019-03-25T15:58:00.564Z,39.58
2019-03-25T16:00:34.067Z,39.92
2019-03-25T16:03:08.130Z,38.88
2019-03-25T16:05:41.948Z,39.88
2019-03-25T16:08:15.897Z,40.28
2019-03-25T16:10:53.673Z,40.60
2019-03-25T16:13:32.339Z,41.40
2019-03-25T16:16:08.526Z,39.75
2019-03-25T16:18:43.516Z,43.38
2019-03-25T16:21:19.703Z,42.00
2019-03-25T16:23:52.396Z,41.35
2019-03-25T16:26:26.840Z,40.98
2019-03-25T16:29:01.080Z,40.65
2019-03-25T16:31:35.644Z,41.48
2019-03-25T16:34:09.080Z,39.35
2019-03-25T16:36:43.722Z,40.70
2019-03-25T16:39:17.662Z,44.58
2019-03-25T16:41:52.224Z,43.30
2019-03-25T16:44:26.352Z,41.68
2019-03-25T16:47:01.435Z,45.33
2019-03-25T16:49:45.484Z,40.70
2019-03-25T16:52:20.725Z,45.70
2019-03-25T16:54:54.362Z,44.20
2019-03-25T16:57:28.181Z,44.10
2019-03-25T17:00:02.191Z,43.23
2019-03-25T17:02:36.688Z,44.00
2019-03-25T17:05:10.294Z,44.25
2019-03-25T17:07:44.302Z,42.00
2019-03-25T17:10:19.209Z,45.95
2019-03-25T17:12:53.299Z,48.80
2019-03-25T17:15:27.953Z,45.78
2019-03-25T17:18:01.999Z,52.05
2019-03-25T17:20:38.283Z,51.48
2019-03-25T17:23:12.412Z,57.30
2019-03-25T17:25:52.985Z,57.67
2019-03-25T17:28:23.470Z,60.15
2019-03-25T17:30:57.243Z,58.50
2019-03-25T17:33:31.647Z,67.32
2019-03-25T17:36:07.264Z,65.90
2019-03-25T17:38:47.222Z,68.62
2019-03-25T17:41:30.106Z,73.42
2019-03-25T17:44:03.703Z,73.97
2019-03-25T17:46:41.111Z,79.45
2019-03-25T17:49:13.215Z,79.92
2019-03-25T17:51:49.030Z,85.03
2019-03-25T17:54:27.969Z,77.65
2019-03-25T17:57:03.456Z,84.87
2019-03-25T17:59:37.213Z,89.45
2019-03-25T18:02:11.503Z,91.00
2019-03-25T18:04:45.836Z,85.92
2019-03-25T18:07:19.562Z,87.55
2019-03-25T18:09:55.021Z,86.35
2019-03-25T18:12:38.748Z,80.07
2019-03-25T18:15:05.340Z,82.95
2019-03-25T18:17:39.800Z,80.10
2019-03-25T18:20:18.958Z,81.42
2019-03-25T18:22:50.599Z,84.22
2019-03-25T18:25:24.540Z,86.10
2019-03-25T18:27:58.488Z,75.10
2019-03-25T18:30:36.031Z,80.95
2019-03-25T18:33:09.888Z,81.57
2019-03-25T18:35:43.514Z,81.67
2019-03-25T18:38:17.508Z,79.40
2019-03-25T18:40:51.085Z,75.25
2019-03-25T18:43:25.090Z,74.65
2019-03-25T18:45:58.628Z,77.65
2019-03-25T18:48:52.310Z,72.67
2019-03-25T18:51:26.132Z,72.90
2019-03-25T18:54:00.840Z,68.55
2019-03-25T18:56:35.018Z,66.82
2019-03-25T18:59:10.521Z,68.10
2019-03-25T19:01:54.020Z,63.50
2019-03-25T19:04:20.183Z,58.08
2019-03-25T19:06:54.345Z,58.58
2019-03-25T19:09:28.373Z,58.20
2019-03-25T19:12:02.175Z,60.50
2019-03-25T19:14:35.874Z,57.40
2019-03-25T19:17:09.673Z,59.13
2019-03-25T19:19:43.741Z,57.33
2019-03-25T19:22:17.684Z,61.08
2019-03-25T19:24:52.174Z,62.13
2019-03-25T19:27:25.731Z,61.68
2019-03-25T19:29:59.810Z,67.20
2019-03-25T19:32:33.739Z,66.82
2019-03-25T19:35:08.474Z,60.75
2019-03-25T19:37:42.043Z,61.80
2019-03-25T19:40:15.879Z,62.95
2019-03-25T19:42:50.462Z,63.78
2019-03-25T19:45:24.385Z,61.48
2019-03-25T19:47:58.300Z,60.67
2019-03-25T19:50:32.823Z,60.92
2019-03-25T19:53:18.329Z,61.33
2019-03-25T19:55:41.952Z,66.17
2019-03-25T19:58:16.464Z,66.50
2019-03-25T20:00:50.425Z,66.05
2019-03-25T20:03:24.074Z,66.95
2019-03-25T20:05:58.019Z,63.05
2019-03-25T20:08:31.976Z,62.20
2019-03-25T20:11:05.921Z,63.35
2019-03-25T20:13:39.408Z,63.08
2019-03-25T20:16:13.719Z,65.03
2019-03-25T20:18:47.380Z,66.82
2019-03-25T20:21:21.499Z,66.55
2019-03-25T20:23:55.135Z,65.00
2019-03-25T20:26:28.786Z,64.50
2019-03-25T20:29:06.278Z,64.50
2019-03-25T20:31:39.733Z,59.38
2019-03-25T20:34:13.532Z,55.73
2019-03-25T20:36:47.605Z,55.55
2019-03-25T20:39:21.348Z,55.92
2019-03-25T20:41:55.113Z,63.10
2019-03-25T20:44:28.655Z,57.45
2019-03-25T20:47:02.482Z,62.88
2019-03-25T20:49:35.975Z,59.67
2019-03-25T20:52:09.722Z,60.75
2019-03-25T20:54:43.480Z,62.25
2019-03-25T20:57:17.129Z,75.10
2019-03-25T21:00:10.398Z,73.50
2019-03-25T21:02:46.132Z,75.20
2019-03-25T21:05:19.885Z,62.17
2019-03-25T21:07:54.036Z,60.98
2019-03-25T21:10:27.899Z,61.20
2019-03-25T21:13:02.098Z,60.73
2019-03-25T21:15:35.890Z,55.03
2019-03-25T21:18:10.139Z,58.05
2019-03-25T21:20:44.169Z,59.40
2019-03-25T21:23:18.204Z,58.00
2019-03-25T21:25:51.650Z,61.92
2019-03-25T21:28:25.719Z,55.40
2019-03-25T21:30:59.288Z,56.42
2019-03-25T21:33:32.817Z,50.70
2019-03-25T21:36:06.727Z,62.58
2019-03-25T21:38:40.985Z,62.48
2019-03-25T21:41:15.022Z,61.83
2019-03-25T21:43:49.053Z,61.23
2019-03-25T21:46:23.000Z,60.43
2019-03-25T21:48:56.914Z,62.90
2019-03-25T21:51:30.815Z,60.20
2019-03-25T21:54:04.602Z,58.42
2019-03-25T21:56:38.312Z,56.48
2019-03-25T21:59:12.310Z,58.35
2019-03-25T22:01:46.365Z,59.58
2019-03-25T22:04:20.430Z,59.10
2019-03-25T22:06:54.253Z,63.63
2019-03-25T22:09:28.174Z,63.52
2019-03-25T22:12:01.997Z,63.58
2019-03-25T22:14:36.234Z,66.10
2019-03-25T22:17:10.151Z,61.68
2019-03-25T22:19:43.853Z,66.00
2019-03-25T22:22:19.167Z,66.15
2019-03-25T22:24:53.315Z,64.45
2019-03-25T22:27:27.001Z,68.47
2019-03-25T22:30:01.337Z,72.85
2019-03-25T22:32:35.300Z,67.60
2019-03-25T22:35:10.127Z,73.20
2019-03-25T22:37:43.651Z,81.02
2019-03-25T22:40:17.889Z,75.95
2019-03-25T22:42:51.821Z,72.87
2019-03-25T22:45:30.658Z,77.00
2019-03-25T22:48:07.621Z,73.50
2019-03-25T22:50:43.267Z,69.62
2019-03-25T22:53:16.982Z,70.97
2019-03-25T22:55:51.649Z,68.62
2019-03-25T23:02:04.357Z,72.70
2019-03-25T23:05:16.809Z,73.95
2019-03-25T23:14:43.452Z,68.52
2019-03-25T23:17:18.729Z,71.85
2019-03-25T23:19:52.125Z,68.05
2019-03-25T23:22:25.985Z,77.45
2019-03-25T23:24:59.330Z,82.08
2019-03-25T23:27:39.029Z,75.97
2019-03-25T23:30:16.878Z,70.42
2019-03-25T23:36:23.878Z,71.15
2019-03-25T23:39:06.422Z,79.03
2019-03-25T23:41:43.551Z,73.67
2019-03-25T23:45:03.293Z,82.30
2019-03-25T23:47:37.203Z,82.40
2019-03-25T23:50:11.957Z,85.90
2019-03-25T23:52:48.131Z,75.75
2019-03-25T23:55:21.824Z,74.67
2019-03-25T23:57:56.311Z,74.90
